sensor_id;sensor_type;location;lat;lon;timestamp;pressure;altitude;pressure_sealevel;temperature;humidity
57801;BME280;43627;42.728;23.256;2023-10-19T00:01:15;95073.47;;;6.86;nan
57801;BME280;43627;42.728;23.256;2023-10-19T00:03:42;95065.31;;;6.86;nan
57801;BME280;43627;42.728;23.256;2023-10-19T00:06:11;95064.44;;;6.90;nan
57801;BME280;43627;42.728;23.256;2023-10-19T00:08:38;95059.16;;;6.86;nan
57801;BME280;43627;42.728;23.256;2023-10-19T00:11:09;95051.78;;;6.86;nan
57801;BME280;43627;42.728;23.256;2023-10-19T00:13:38;95044.28;;;6.91;nan
57801;BME280;43627;42.728;23.256;2023-10-19T00:16:09;95054.59;;;6.96;nan
57801;BME280;43627;42.728;23.256;2023-10-19T00:18:49;95041.91;;;6.93;nan
57801;BME280;43627;42.728;23.256;2023-10-19T00:21:17;95053.16;;;7.04;nan
57801;BME280;43627;42.728;23.256;2023-10-19T00:23:47;95040.81;;;7.03;nan
57801;BME280;43627;42.728;23.256;2023-10-19T00:26:16;95034.81;;;7.08;nan
57801;BME280;43627;42.728;23.256;2023-10-19T00:28:47;95038.59;;;7.10;nan
57801;BME280;43627;42.728;23.256;2023-10-19T00:31:19;95033.22;;;6.98;nan
57801;BME280;43627;42.728;23.256;2023-10-19T00:33:47;95040.38;;;6.79;nan
57801;BME280;43627;42.728;23.256;2023-10-19T00:36:18;95039.44;;;6.73;nan
57801;BME280;43627;42.728;23.256;2023-10-19T00:38:47;95031.63;;;6.62;nan
57801;BME280;43627;42.728;23.256;2023-10-19T00:41:26;95036.63;;;6.64;nan
57801;BME280;43627;42.728;23.256;2023-10-19T00:43:58;95032.50;;;6.59;nan
57801;BME280;43627;42.728;23.256;2023-10-19T00:46:39;95033.69;;;6.45;nan
57801;BME280;43627;42.728;23.256;2023-10-19T00:49:11;95033.47;;;6.40;nan
57801;BME280;43627;42.728;23.256;2023-10-19T00:54:16;95035.72;;;6.28;nan
57801;BME280;43627;42.728;23.256;2023-10-19T00:56:48;95037.44;;;6.22;nan
57801;BME280;43627;42.728;23.256;2023-10-19T00:59:19;95037.56;;;6.19;nan
57801;BME280;43627;42.728;23.256;2023-10-19T01:01:57;95037.75;;;6.12;nan
57801;BME280;43627;42.728;23.256;2023-10-19T01:04:44;95033.09;;;5.99;nan
57801;BME280;43627;42.728;23.256;2023-10-19T01:07:12;95035.47;;;5.97;nan
57801;BME280;43627;42.728;23.256;2023-10-19T01:09:49;95038.09;;;5.85;nan
57801;BME280;43627;42.728;23.256;2023-10-19T01:12:20;95036.25;;;5.82;nan
57801;BME280;43627;42.728;23.256;2023-10-19T01:15:15;95044.75;;;5.67;nan
57801;BME280;43627;42.728;23.256;2023-10-19T01:17:52;95041.72;;;5.65;nan
57801;BME280;43627;42.728;23.256;2023-10-19T01:20:30;95032.06;;;5.52;nan
57801;BME280;43627;42.728;23.256;2023-10-19T01:23:07;95030.69;;;5.60;nan
57801;BME280;43627;42.728;23.256;2023-10-19T01:28:31;95034.69;;;5.68;nan
57801;BME280;43627;42.728;23.256;2023-10-19T01:31:12;95014.03;;;5.61;nan
57801;BME280;43627;42.728;23.256;2023-10-19T01:33:59;95030.97;;;5.78;nan
57801;BME280;43627;42.728;23.256;2023-10-19T01:36:28;95017.56;;;5.58;nan
57801;BME280;43627;42.728;23.256;2023-10-19T01:39:04;95041.34;;;5.80;nan
57801;BME280;43627;42.728;23.256;2023-10-19T01:41:38;95043.09;;;5.57;nan
57801;BME280;43627;42.728;23.256;2023-10-19T01:44:07;95039.13;;;5.62;nan
57801;BME280;43627;42.728;23.256;2023-10-19T01:46:35;95047.88;;;5.66;nan
57801;BME280;43627;42.728;23.256;2023-10-19T01:49:04;95050.38;;;5.60;nan
57801;BME280;43627;42.728;23.256;2023-10-19T01:51:34;95049.19;;;5.61;nan
57801;BME280;43627;42.728;23.256;2023-10-19T01:54:06;95037.19;;;5.62;nan
57801;BME280;43627;42.728;23.256;2023-10-19T01:56:34;95036.31;;;5.65;nan
57801;BME280;43627;42.728;23.256;2023-10-19T01:59:03;95020.75;;;5.69;nan
57801;BME280;43627;42.728;23.256;2023-10-19T02:01:31;95026.84;;;5.86;nan
57801;BME280;43627;42.728;23.256;2023-10-19T02:04:00;95009.53;;;5.84;nan
57801;BME280;43627;42.728;23.256;2023-10-19T02:06:29;95037.06;;;5.95;nan
57801;BME280;43627;42.728;23.256;2023-10-19T02:09:08;95032.78;;;5.97;nan
57801;BME280;43627;42.728;23.256;2023-10-19T02:11:45;95028.94;;;5.95;nan
57801;BME280;43627;42.728;23.256;2023-10-19T02:14:16;95032.59;;;5.88;nan
57801;BME280;43627;42.728;23.256;2023-10-19T02:16:52;95041.50;;;5.60;nan
57801;BME280;43627;42.728;23.256;2023-10-19T02:19:20;95039.31;;;5.55;nan
57801;BME280;43627;42.728;23.256;2023-10-19T02:21:55;95037.41;;;5.68;nan
57801;BME280;43627;42.728;23.256;2023-10-19T02:24:23;95040.34;;;5.73;nan
57801;BME280;43627;42.728;23.256;2023-10-19T02:26:52;95021.84;;;5.72;nan
57801;BME280;43627;42.728;23.256;2023-10-19T02:29:19;95034.81;;;5.77;nan
57801;BME280;43627;42.728;23.256;2023-10-19T02:31:46;95024.84;;;5.61;nan
57801;BME280;43627;42.728;23.256;2023-10-19T02:34:14;95033.78;;;5.58;nan
57801;BME280;43627;42.728;23.256;2023-10-19T02:36:43;95036.59;;;5.55;nan
57801;BME280;43627;42.728;23.256;2023-10-19T02:39:13;95033.66;;;5.49;nan
57801;BME280;43627;42.728;23.256;2023-10-19T02:41:41;95041.25;;;5.54;nan
57801;BME280;43627;42.728;23.256;2023-10-19T02:44:12;95034.66;;;5.55;nan
57801;BME280;43627;42.728;23.256;2023-10-19T02:46:47;95030.91;;;5.65;nan
57801;BME280;43627;42.728;23.256;2023-10-19T02:49:15;95031.22;;;5.67;nan
57801;BME280;43627;42.728;23.256;2023-10-19T02:51:46;95037.59;;;5.61;nan
57801;BME280;43627;42.728;23.256;2023-10-19T02:54:18;95024.41;;;5.63;nan
57801;BME280;43627;42.728;23.256;2023-10-19T02:56:55;95028.88;;;5.69;nan
57801;BME280;43627;42.728;23.256;2023-10-19T02:59:27;95026.50;;;5.71;nan
57801;BME280;43627;42.728;23.256;2023-10-19T03:01:56;95031.78;;;5.75;nan
57801;BME280;43627;42.728;23.256;2023-10-19T03:04:44;95029.19;;;5.71;nan
57801;BME280;43627;42.728;23.256;2023-10-19T03:07:12;95027.13;;;5.76;nan
57801;BME280;43627;42.728;23.256;2023-10-19T03:09:40;95033.22;;;5.80;nan
57801;BME280;43627;42.728;23.256;2023-10-19T03:12:15;95025.31;;;5.72;nan
57801;BME280;43627;42.728;23.256;2023-10-19T03:14:44;95020.91;;;5.79;nan
57801;BME280;43627;42.728;23.256;2023-10-19T03:17:15;95033.13;;;5.83;nan
57801;BME280;43627;42.728;23.256;2023-10-19T03:19:43;95023.81;;;5.84;nan
57801;BME280;43627;42.728;23.256;2023-10-19T03:22:10;95033.88;;;5.84;nan
57801;BME280;43627;42.728;23.256;2023-10-19T03:24:38;95031.84;;;5.88;nan
57801;BME280;43627;42.728;23.256;2023-10-19T03:27:07;95032.84;;;5.94;nan
57801;BME280;43627;42.728;23.256;2023-10-19T03:29:48;95015.13;;;5.77;nan
57801;BME280;43627;42.728;23.256;2023-10-19T03:32:21;95026.81;;;5.73;nan
57801;BME280;43627;42.728;23.256;2023-10-19T03:34:55;95019.13;;;5.72;nan
57801;BME280;43627;42.728;23.256;2023-10-19T03:37:23;95027.06;;;5.79;nan
57801;BME280;43627;42.728;23.256;2023-10-19T03:39:52;95018.94;;;5.79;nan
57801;BME280;43627;42.728;23.256;2023-10-19T03:42:23;95022.19;;;5.87;nan
57801;BME280;43627;42.728;23.256;2023-10-19T03:44:56;95008.06;;;5.95;nan
57801;BME280;43627;42.728;23.256;2023-10-19T03:47:24;94998.19;;;5.89;nan
57801;BME280;43627;42.728;23.256;2023-10-19T03:50:05;95013.75;;;5.85;nan
57801;BME280;43627;42.728;23.256;2023-10-19T03:52:37;95002.78;;;5.76;nan
57801;BME280;43627;42.728;23.256;2023-10-19T03:55:06;95009.19;;;5.82;nan
57801;BME280;43627;42.728;23.256;2023-10-19T03:57:38;95000.97;;;5.72;nan
57801;BME280;43627;42.728;23.256;2023-10-19T04:00:09;94991.19;;;5.62;nan
57801;BME280;43627;42.728;23.256;2023-10-19T04:02:37;95010.59;;;5.73;nan
57801;BME280;43627;42.728;23.256;2023-10-19T04:05:05;94999.34;;;5.75;nan
57801;BME280;43627;42.728;23.256;2023-10-19T04:07:34;95002.97;;;5.68;nan
57801;BME280;43627;42.728;23.256;2023-10-19T04:10:02;95019.31;;;5.65;nan
57801;BME280;43627;42.728;23.256;2023-10-19T04:12:36;95014.34;;;5.63;nan
57801;BME280;43627;42.728;23.256;2023-10-19T04:15:05;95002.97;;;5.56;nan
57801;BME280;43627;42.728;23.256;2023-10-19T04:17:39;95013.00;;;5.55;nan
57801;BME280;43627;42.728;23.256;2023-10-19T04:20:07;95008.16;;;5.50;nan
57801;BME280;43627;42.728;23.256;2023-10-19T04:22:47;95012.69;;;5.53;nan
57801;BME280;43627;42.728;23.256;2023-10-19T04:25:15;95009.88;;;5.57;nan
57801;BME280;43627;42.728;23.256;2023-10-19T04:27:43;95015.50;;;5.50;nan
57801;BME280;43627;42.728;23.256;2023-10-19T04:30:14;95008.47;;;5.52;nan
57801;BME280;43627;42.728;23.256;2023-10-19T04:32:49;94990.16;;;5.43;nan
57801;BME280;43627;42.728;23.256;2023-10-19T04:35:17;94984.31;;;5.45;nan
57801;BME280;43627;42.728;23.256;2023-10-19T04:37:52;94999.50;;;5.55;nan
57801;BME280;43627;42.728;23.256;2023-10-19T04:40:20;94990.63;;;5.55;nan
57801;BME280;43627;42.728;23.256;2023-10-19T04:42:50;94991.09;;;5.66;nan
57801;BME280;43627;42.728;23.256;2023-10-19T04:45:17;94987.31;;;5.76;nan
57801;BME280;43627;42.728;23.256;2023-10-19T04:47:44;94997.84;;;5.87;nan
57801;BME280;43627;42.728;23.256;2023-10-19T04:50:13;94985.41;;;5.89;nan
57801;BME280;43627;42.728;23.256;2023-10-19T04:52:40;94984.25;;;5.90;nan
57801;BME280;43627;42.728;23.256;2023-10-19T04:55:07;94994.97;;;5.94;nan
57801;BME280;43627;42.728;23.256;2023-10-19T04:57:34;94972.50;;;5.81;nan
57801;BME280;43627;42.728;23.256;2023-10-19T05:00:01;94989.72;;;5.87;nan
57801;BME280;43627;42.728;23.256;2023-10-19T05:02:30;94991.72;;;5.99;nan
57801;BME280;43627;42.728;23.256;2023-10-19T05:04:57;94983.81;;;6.05;nan
57801;BME280;43627;42.728;23.256;2023-10-19T05:07:24;94993.69;;;6.11;nan
57801;BME280;43627;42.728;23.256;2023-10-19T05:09:51;94999.09;;;6.11;nan
57801;BME280;43627;42.728;23.256;2023-10-19T05:12:21;94979.91;;;6.06;nan
57801;BME280;43627;42.728;23.256;2023-10-19T05:14:48;95000.19;;;6.01;nan
57801;BME280;43627;42.728;23.256;2023-10-19T05:17:15;94989.47;;;5.97;nan
57801;BME280;43627;42.728;23.256;2023-10-19T05:19:43;94995.41;;;6.05;nan
57801;BME280;43627;42.728;23.256;2023-10-19T05:22:10;94970.38;;;5.88;nan
57801;BME280;43627;42.728;23.256;2023-10-19T05:24:37;94992.28;;;6.07;nan
57801;BME280;43627;42.728;23.256;2023-10-19T05:27:04;95003.31;;;6.12;nan
57801;BME280;43627;42.728;23.256;2023-10-19T05:29:32;95006.38;;;6.27;nan
57801;BME280;43627;42.728;23.256;2023-10-19T05:32:03;95005.31;;;6.37;nan
57801;BME280;43627;42.728;23.256;2023-10-19T05:34:30;94995.09;;;6.16;nan
57801;BME280;43627;42.728;23.256;2023-10-19T05:37:01;95013.53;;;6.21;nan
57801;BME280;43627;42.728;23.256;2023-10-19T05:39:29;95015.69;;;6.26;nan
57801;BME280;43627;42.728;23.256;2023-10-19T05:41:58;95016.13;;;6.37;nan
57801;BME280;43627;42.728;23.256;2023-10-19T05:44:29;94996.94;;;6.44;nan
57801;BME280;43627;42.728;23.256;2023-10-19T05:46:57;95018.31;;;6.55;nan
57801;BME280;43627;42.728;23.256;2023-10-19T05:49:25;95014.09;;;6.54;nan
57801;BME280;43627;42.728;23.256;2023-10-19T05:51:52;95015.34;;;6.62;nan
57801;BME280;43627;42.728;23.256;2023-10-19T05:54:19;95012.84;;;6.80;nan
57801;BME280;43627;42.728;23.256;2023-10-19T05:56:46;95016.50;;;6.99;nan
57801;BME280;43627;42.728;23.256;2023-10-19T05:59:13;95027.44;;;7.21;nan
57801;BME280;43627;42.728;23.256;2023-10-19T06:01:41;95010.63;;;7.13;nan
57801;BME280;43627;42.728;23.256;2023-10-19T06:04:08;95011.78;;;7.25;nan
57801;BME280;43627;42.728;23.256;2023-10-19T06:06:35;95010.53;;;7.39;nan
57801;BME280;43627;42.728;23.256;2023-10-19T06:09:03;95017.84;;;7.29;nan
57801;BME280;43627;42.728;23.256;2023-10-19T06:11:31;95031.59;;;7.35;nan
57801;BME280;43627;42.728;23.256;2023-10-19T06:14:09;94978.53;;;7.12;nan
57801;BME280;43627;42.728;23.256;2023-10-19T06:16:36;94967.50;;;7.28;nan
57801;BME280;43627;42.728;23.256;2023-10-19T06:19:03;95001.91;;;7.75;nan
57801;BME280;43627;42.728;23.256;2023-10-19T06:21:31;94990.91;;;7.69;nan
57801;BME280;43627;42.728;23.256;2023-10-19T06:23:59;95000.84;;;7.94;nan
57801;BME280;43627;42.728;23.256;2023-10-19T06:26:26;95007.06;;;8.04;nan
57801;BME280;43627;42.728;23.256;2023-10-19T06:28:53;94999.06;;;8.00;nan
57801;BME280;43627;42.728;23.256;2023-10-19T06:31:25;95006.50;;;8.09;nan
57801;BME280;43627;42.728;23.256;2023-10-19T06:33:52;95000.28;;;7.99;nan
57801;BME280;43627;42.728;23.256;2023-10-19T06:36:19;94981.41;;;7.96;nan
57801;BME280;43627;42.728;23.256;2023-10-19T06:38:46;95011.63;;;8.07;nan
57801;BME280;43627;42.728;23.256;2023-10-19T06:41:15;94991.13;;;7.84;nan
57801;BME280;43627;42.728;23.256;2023-10-19T06:43:43;95024.38;;;8.19;nan
57801;BME280;43627;42.728;23.256;2023-10-19T06:46:10;94936.84;;;7.84;nan
57801;BME280;43627;42.728;23.256;2023-10-19T06:48:39;95036.66;;;8.55;nan
57801;BME280;43627;42.728;23.256;2023-10-19T06:51:06;95028.25;;;8.71;nan
57801;BME280;43627;42.728;23.256;2023-10-19T06:53:33;95009.63;;;9.01;nan
57801;BME280;43627;42.728;23.256;2023-10-19T06:56:01;94977.34;;;8.63;nan
57801;BME280;43627;42.728;23.256;2023-10-19T06:58:28;94980.22;;;8.68;nan
57801;BME280;43627;42.728;23.256;2023-10-19T07:00:56;94963.63;;;8.66;nan
57801;BME280;43627;42.728;23.256;2023-10-19T07:03:23;94952.28;;;8.68;nan
57801;BME280;43627;42.728;23.256;2023-10-19T07:05:51;94975.88;;;8.89;nan
57801;BME280;43627;42.728;23.256;2023-10-19T07:08:19;95006.94;;;9.37;nan
57801;BME280;43627;42.728;23.256;2023-10-19T07:10:48;95027.06;;;9.58;nan
57801;BME280;43627;42.728;23.256;2023-10-19T07:13:18;95014.69;;;9.57;nan
57801;BME280;43627;42.728;23.256;2023-10-19T07:15:47;94977.63;;;9.51;nan
57801;BME280;43627;42.728;23.256;2023-10-19T07:18:16;95014.50;;;9.97;nan
57801;BME280;43627;42.728;23.256;2023-10-19T07:20:43;95000.72;;;9.92;nan
57801;BME280;43627;42.728;23.256;2023-10-19T07:23:10;95012.34;;;10.01;nan
57801;BME280;43627;42.728;23.256;2023-10-19T07:25:45;94996.16;;;10.07;nan
57801;BME280;43627;42.728;23.256;2023-10-19T07:28:15;95018.84;;;10.22;nan
57801;BME280;43627;42.728;23.256;2023-10-19T07:30:43;95014.75;;;10.27;nan
57801;BME280;43627;42.728;23.256;2023-10-19T07:33:11;95030.66;;;10.01;nan
57801;BME280;43627;42.728;23.256;2023-10-19T07:35:45;95030.09;;;9.69;nan
57801;BME280;43627;42.728;23.256;2023-10-19T07:38:14;95035.53;;;9.51;nan
57801;BME280;43627;42.728;23.256;2023-10-19T07:40:42;95025.53;;;9.76;nan
57801;BME280;43627;42.728;23.256;2023-10-19T07:43:10;95023.28;;;9.65;nan
57801;BME280;43627;42.728;23.256;2023-10-19T07:45:37;95030.09;;;9.60;nan
57801;BME280;43627;42.728;23.256;2023-10-19T07:48:05;95030.41;;;9.71;nan
57801;BME280;43627;42.728;23.256;2023-10-19T07:50:38;95018.16;;;9.67;nan
57801;BME280;43627;42.728;23.256;2023-10-19T07:53:07;95031.88;;;9.45;nan
57801;BME280;43627;42.728;23.256;2023-10-19T07:55:36;95024.16;;;9.25;nan
57801;BME280;43627;42.728;23.256;2023-10-19T07:58:04;95034.63;;;9.45;nan
57801;BME280;43627;42.728;23.256;2023-10-19T08:00:31;95011.94;;;9.48;nan
57801;BME280;43627;42.728;23.256;2023-10-19T08:03:01;95025.53;;;9.94;nan
57801;BME280;43627;42.728;23.256;2023-10-19T08:05:30;95032.78;;;10.34;nan
57801;BME280;43627;42.728;23.256;2023-10-19T08:07:57;95007.53;;;10.57;nan
57801;BME280;43627;42.728;23.256;2023-10-19T08:10:25;94972.63;;;10.70;nan
57801;BME280;43627;42.728;23.256;2023-10-19T08:12:55;95004.91;;;11.29;nan
57801;BME280;43627;42.728;23.256;2023-10-19T08:15:23;94927.41;;;11.11;nan
57801;BME280;43627;42.728;23.256;2023-10-19T08:17:51;94956.06;;;11.45;nan
57801;BME280;43627;42.728;23.256;2023-10-19T08:20:20;95010.72;;;11.84;nan
57801;BME280;43627;42.728;23.256;2023-10-19T08:22:52;95027.06;;;12.08;nan
57801;BME280;43627;42.728;23.256;2023-10-19T08:25:20;95020.28;;;12.04;nan
57801;BME280;43627;42.728;23.256;2023-10-19T08:27:47;94995.56;;;12.13;nan
57801;BME280;43627;42.728;23.256;2023-10-19T08:30:19;95009.06;;;12.16;nan
57801;BME280;43627;42.728;23.256;2023-10-19T08:32:51;95013.28;;;12.62;nan
57801;BME280;43627;42.728;23.256;2023-10-19T08:35:20;95013.06;;;12.80;nan
57801;BME280;43627;42.728;23.256;2023-10-19T08:37:53;95013.19;;;12.71;nan
57801;BME280;43627;42.728;23.256;2023-10-19T08:40:21;94980.34;;;12.71;nan
57801;BME280;43627;42.728;23.256;2023-10-19T08:42:50;95006.53;;;12.92;nan
57801;BME280;43627;42.728;23.256;2023-10-19T08:45:18;95000.06;;;13.10;nan
57801;BME280;43627;42.728;23.256;2023-10-19T08:48:06;94984.50;;;13.01;nan
57801;BME280;43627;42.728;23.256;2023-10-19T08:50:35;95021.47;;;13.47;nan
57801;BME280;43627;42.728;23.256;2023-10-19T08:53:03;95014.25;;;13.69;nan
57801;BME280;43627;42.728;23.256;2023-10-19T08:55:31;95014.94;;;13.44;nan
57801;BME280;43627;42.728;23.256;2023-10-19T08:58:15;95014.03;;;13.73;nan
57801;BME280;43627;42.728;23.256;2023-10-19T09:03:14;95013.13;;;14.28;nan
57801;BME280;43627;42.728;23.256;2023-10-19T09:05:43;94999.63;;;14.24;nan
57801;BME280;43627;42.728;23.256;2023-10-19T09:08:20;94956.31;;;14.03;nan
57801;BME280;43627;42.728;23.256;2023-10-19T09:10:50;94992.69;;;14.29;nan
57801;BME280;43627;42.728;23.256;2023-10-19T09:13:20;94959.81;;;14.35;nan
57801;BME280;43627;42.728;23.256;2023-10-19T09:15:50;94930.19;;;14.39;nan
57801;BME280;43627;42.728;23.256;2023-10-19T09:18:24;94963.19;;;14.81;nan
57801;BME280;43627;42.728;23.256;2023-10-19T09:20:55;94970.69;;;14.81;nan
57801;BME280;43627;42.728;23.256;2023-10-19T09:23:35;94965.19;;;14.49;nan
57801;BME280;43627;42.728;23.256;2023-10-19T09:26:04;94972.19;;;14.88;nan
57801;BME280;43627;42.728;23.256;2023-10-19T09:28:35;94970.94;;;15.26;nan
57801;BME280;43627;42.728;23.256;2023-10-19T09:31:03;94936.06;;;15.49;nan
57801;BME280;43627;42.728;23.256;2023-10-19T09:33:32;94964.19;;;15.97;nan
57801;BME280;43627;42.728;23.256;2023-10-19T09:36:02;94955.22;;;16.19;nan
57801;BME280;43627;42.728;23.256;2023-10-19T09:38:31;94938.63;;;15.63;nan
57801;BME280;43627;42.728;23.256;2023-10-19T09:41:01;94897.25;;;15.24;nan
57801;BME280;43627;42.728;23.256;2023-10-19T09:43:37;94874.59;;;14.81;nan
57801;BME280;43627;42.728;23.256;2023-10-19T09:46:08;94895.06;;;14.85;nan
57801;BME280;43627;42.728;23.256;2023-10-19T09:48:44;94936.38;;;15.08;nan
57801;BME280;43627;42.728;23.256;2023-10-19T09:51:13;94893.50;;;15.22;nan
57801;BME280;43627;42.728;23.256;2023-10-19T09:53:49;94942.75;;;15.42;nan
57801;BME280;43627;42.728;23.256;2023-10-19T09:56:29;94907.34;;;14.96;nan
57801;BME280;43627;42.728;23.256;2023-10-19T09:59:06;94943.63;;;15.70;nan
57801;BME280;43627;42.728;23.256;2023-10-19T10:04:34;94915.22;;;16.35;nan
57801;BME280;43627;42.728;23.256;2023-10-19T10:07:05;94917.69;;;16.55;nan
57801;BME280;43627;42.728;23.256;2023-10-19T10:09:40;94924.94;;;16.47;nan
57801;BME280;43627;42.728;23.256;2023-10-19T10:12:21;94908.19;;;16.51;nan
57801;BME280;43627;42.728;23.256;2023-10-19T10:14:59;94910.63;;;16.94;nan
57801;BME280;43627;42.728;23.256;2023-10-19T10:17:28;94887.91;;;16.82;nan
57801;BME280;43627;42.728;23.256;2023-10-19T10:25:49;94892.34;;;17.60;nan
57801;BME280;43627;42.728;23.256;2023-10-19T10:28:17;94896.97;;;17.87;nan
57801;BME280;43627;42.728;23.256;2023-10-19T10:31:21;94884.28;;;17.73;nan
57801;BME280;43627;42.728;23.256;2023-10-19T10:33:52;94886.06;;;17.59;nan
57801;BME280;43627;42.728;23.256;2023-10-19T10:36:21;94883.38;;;17.54;nan
57801;BME280;43627;42.728;23.256;2023-10-19T10:38:50;94856.47;;;17.65;nan
57801;BME280;43627;42.728;23.256;2023-10-19T10:41:24;94848.50;;;17.56;nan
57801;BME280;43627;42.728;23.256;2023-10-19T10:43:56;94849.69;;;17.72;nan
57801;BME280;43627;42.728;23.256;2023-10-19T10:46:25;94838.66;;;17.25;nan
57801;BME280;43627;42.728;23.256;2023-10-19T10:48:53;94843.38;;;17.36;nan
57801;BME280;43627;42.728;23.256;2023-10-19T10:51:27;94827.28;;;17.40;nan
57801;BME280;43627;42.728;23.256;2023-10-19T10:53:57;94831.16;;;17.67;nan
57801;BME280;43627;42.728;23.256;2023-10-19T10:56:24;94817.16;;;17.59;nan
57801;BME280;43627;42.728;23.256;2023-10-19T10:58:51;94809.09;;;17.67;nan
57801;BME280;43627;42.728;23.256;2023-10-19T11:01:28;94812.13;;;17.99;nan
57801;BME280;43627;42.728;23.256;2023-10-19T11:04:10;94802.25;;;18.09;nan
57801;BME280;43627;42.728;23.256;2023-10-19T11:06:51;94790.16;;;17.88;nan
57801;BME280;43627;42.728;23.256;2023-10-19T11:09:22;94728.44;;;17.25;nan
57801;BME280;43627;42.728;23.256;2023-10-19T11:11:49;94806.03;;;17.76;nan
57801;BME280;43627;42.728;23.256;2023-10-19T11:14:18;94791.56;;;17.64;nan
57801;BME280;43627;42.728;23.256;2023-10-19T11:16:45;94781.41;;;17.84;nan
57801;BME280;43627;42.728;23.256;2023-10-19T11:19:13;94784.06;;;17.95;nan
57801;BME280;43627;42.728;23.256;2023-10-19T11:21:53;94773.50;;;17.99;nan
57801;BME280;43627;42.728;23.256;2023-10-19T11:24:25;94783.59;;;18.21;nan
57801;BME280;43627;42.728;23.256;2023-10-19T11:26:53;94778.81;;;18.21;nan
57801;BME280;43627;42.728;23.256;2023-10-19T11:29:22;94775.50;;;17.98;nan
57801;BME280;43627;42.728;23.256;2023-10-19T11:31:59;94763.91;;;18.06;nan
57801;BME280;43627;42.728;23.256;2023-10-19T11:34:29;94744.91;;;18.02;nan
57801;BME280;43627;42.728;23.256;2023-10-19T11:36:56;94774.72;;;18.28;nan
57801;BME280;43627;42.728;23.256;2023-10-19T11:39:26;94754.59;;;18.58;nan
57801;BME280;43627;42.728;23.256;2023-10-19T11:41:53;94741.34;;;18.75;nan
57801;BME280;43627;42.728;23.256;2023-10-19T11:44:20;94754.75;;;18.90;nan
57801;BME280;43627;42.728;23.256;2023-10-19T11:46:48;94753.41;;;18.77;nan
57801;BME280;43627;42.728;23.256;2023-10-19T11:49:15;94767.31;;;18.66;nan
57801;BME280;43627;42.728;23.256;2023-10-19T11:51:42;94758.13;;;18.58;nan
57801;BME280;43627;42.728;23.256;2023-10-19T11:54:10;94747.19;;;18.71;nan
57801;BME280;43627;42.728;23.256;2023-10-19T11:56:37;94761.81;;;18.85;nan
57801;BME280;43627;42.728;23.256;2023-10-19T11:59:04;94756.22;;;18.91;nan
57801;BME280;43627;42.728;23.256;2023-10-19T12:01:30;94752.94;;;19.11;nan
57801;BME280;43627;42.728;23.256;2023-10-19T12:03:57;94729.66;;;19.25;nan
57801;BME280;43627;42.728;23.256;2023-10-19T12:06:24;94724.34;;;19.27;nan
57801;BME280;43627;42.728;23.256;2023-10-19T12:08:52;94741.34;;;19.31;nan
57801;BME280;43627;42.728;23.256;2023-10-19T12:11:22;94737.25;;;19.57;nan
57801;BME280;43627;42.728;23.256;2023-10-19T12:13:51;94714.94;;;19.49;nan
57801;BME280;43627;42.728;23.256;2023-10-19T12:16:20;94722.59;;;19.62;nan
57801;BME280;43627;42.728;23.256;2023-10-19T12:18:50;94718.97;;;19.67;nan
57801;BME280;43627;42.728;23.256;2023-10-19T12:21:17;94711.34;;;19.73;nan
57801;BME280;43627;42.728;23.256;2023-10-19T12:23:46;94709.88;;;19.85;nan
57801;BME280;43627;42.728;23.256;2023-10-19T12:26:18;94701.09;;;19.68;nan
57801;BME280;43627;42.728;23.256;2023-10-19T12:28:46;94710.25;;;19.63;nan
57801;BME280;43627;42.728;23.256;2023-10-19T12:31:15;94722.88;;;19.90;nan
57801;BME280;43627;42.728;23.256;2023-10-19T12:33:45;94712.78;;;20.19;nan
57801;BME280;43627;42.728;23.256;2023-10-19T12:36:12;94709.72;;;20.49;nan
57801;BME280;43627;42.728;23.256;2023-10-19T12:38:58;94695.66;;;20.21;nan
57801;BME280;43627;42.728;23.256;2023-10-19T12:41:25;94704.47;;;20.33;nan
57801;BME280;43627;42.728;23.256;2023-10-19T12:43:53;94694.47;;;20.30;nan
57801;BME280;43627;42.728;23.256;2023-10-19T12:46:34;94699.69;;;20.33;nan
57801;BME280;43627;42.728;23.256;2023-10-19T12:49:07;94699.03;;;20.27;nan
57801;BME280;43627;42.728;23.256;2023-10-19T12:51:41;94690.09;;;20.34;nan
57801;BME280;43627;42.728;23.256;2023-10-19T12:54:08;94691.41;;;20.20;nan
57801;BME280;43627;42.728;23.256;2023-10-19T12:56:37;94677.22;;;20.37;nan
57801;BME280;43627;42.728;23.256;2023-10-19T12:59:05;94703.75;;;20.59;nan
57801;BME280;43627;42.728;23.256;2023-10-19T13:01:34;94684.91;;;20.57;nan
57801;BME280;43627;42.728;23.256;2023-10-19T13:04:02;94692.84;;;20.74;nan
57801;BME280;43627;42.728;23.256;2023-10-19T13:06:40;94664.47;;;20.94;nan
57801;BME280;43627;42.728;23.256;2023-10-19T13:09:08;94663.69;;;20.60;nan
57801;BME280;43627;42.728;23.256;2023-10-19T13:11:35;94677.75;;;20.62;nan
57801;BME280;43627;42.728;23.256;2023-10-19T13:14:03;94667.00;;;20.32;nan
57801;BME280;43627;42.728;23.256;2023-10-19T13:16:32;94679.03;;;20.21;nan
57801;BME280;43627;42.728;23.256;2023-10-19T13:18:59;94672.84;;;20.54;nan
57801;BME280;43627;42.728;23.256;2023-10-19T13:21:35;94652.19;;;20.56;nan
57801;BME280;43627;42.728;23.256;2023-10-19T13:24:04;94649.72;;;20.65;nan
57801;BME280;43627;42.728;23.256;2023-10-19T13:26:32;94645.72;;;20.87;nan
57801;BME280;43627;42.728;23.256;2023-10-19T13:29:00;94651.19;;;21.14;nan
57801;BME280;43627;42.728;23.256;2023-10-19T13:31:28;94629.47;;;21.04;nan
57801;BME280;43627;42.728;23.256;2023-10-19T13:33:57;94644.91;;;21.13;nan
57801;BME280;43627;42.728;23.256;2023-10-19T13:36:26;94642.41;;;20.89;nan
57801;BME280;43627;42.728;23.256;2023-10-19T13:38:53;94580.53;;;20.39;nan
57801;BME280;43627;42.728;23.256;2023-10-19T13:41:21;94614.19;;;20.43;nan
57801;BME280;43627;42.728;23.256;2023-10-19T13:43:48;94623.66;;;20.34;nan
57801;BME280;43627;42.728;23.256;2023-10-19T13:46:15;94631.25;;;20.20;nan
57801;BME280;43627;42.728;23.256;2023-10-19T13:48:42;94625.59;;;20.13;nan
57801;BME280;43627;42.728;23.256;2023-10-19T13:51:09;94609.53;;;19.85;nan